Time;durP1;ratioP1;P1;durP2;ratioP2;P2;SDS_P1;SDS_P2;PMS_P1;PMS_P2;Temp;Humidity;BMP_temperature;BMP_pressure;BME280_temperature;BME280_humidity;BME280_pressure;Samples;Min_cycle;Max_cycle;Signal;HPM_P1;HPM_P2
2023/01/12 00:01:33;;;;;;;6.68;2.03;;;;;;;9.37;83.38;100803.69;3607534;39;20055;-64
2023/01/12 00:03:59;;;;;;;11.43;3.75;;;;;;;9.42;83.41;100806.09;3608164;39;20159;-65
2023/01/12 00:06:25;;;;;;;9.68;2.00;;;;;;;9.45;83.05;100804.13;3606466;39;20425;-64
2023/01/12 00:08:51;;;;;;;7.32;1.95;;;;;;;9.46;83.39;100805.84;3607502;39;20046;-65
2023/01/12 00:11:19;;;;;;;7.47;1.88;;;;;;;9.50;83.58;100803.84;3608446;39;20068;-64
2023/01/12 00:13:45;;;;;;;10.95;2.95;;;;;;;9.47;83.42;100796.84;3606822;39;20366;-64
2023/01/12 00:16:34;;;;;;;8.60;2.45;;;;;;;9.42;83.44;100782.84;3596044;39;20051;-65
2023/01/12 00:19:12;;;;;;;8.32;2.50;;;;;;;9.56;83.57;100797.28;3607961;39;20055;-65
2023/01/12 00:24:18;;;;;;;8.68;2.15;;;;;;;9.62;83.02;100783.50;3607843;39;20095;-65
2023/01/12 00:26:48;;;;;;;11.68;2.38;;;;;;;9.41;83.34;100754.28;3608526;39;20151;-64
2023/01/12 00:29:15;;;;;;;10.15;2.63;;;;;;;9.45;83.36;100758.53;3607144;39;20054;-64
2023/01/12 00:31:42;;;;;;;9.93;2.55;;;;;;;9.68;82.85;100783.16;3609649;39;20054;-64
2023/01/12 00:34:07;;;;;;;11.93;3.13;;;;;;;9.71;82.60;100793.72;3608413;39;20078;-64
2023/01/12 00:36:33;;;;;;;14.13;2.60;;;;;;;9.69;83.43;100774.13;3609429;39;20050;-64
2023/01/12 00:38:59;;;;;;;11.52;2.45;;;;;;;9.71;82.71;100766.88;3609189;39;20065;-64
2023/01/12 00:46:52;;;;;;;;;;;;;;;9.70;83.19;100754.38;3608394;39;20049;-65
2023/01/12 00:49:18;;;;;;;8.88;2.33;;;;;;;9.65;83.43;100760.03;3606552;39;19931;-65
2023/01/12 00:51:44;;;;;;;10.23;2.53;;;;;;;9.67;84.09;100754.56;3606753;39;20120;-65
2023/01/12 00:54:10;;;;;;;9.70;2.35;;;;;;;9.66;84.12;100752.84;3611446;39;20057;-65
2023/01/12 00:56:37;;;;;;;11.73;2.95;;;;;;;9.67;84.96;100751.88;3607610;39;20043;-64
2023/01/12 00:59:04;;;;;;;11.13;2.65;;;;;;;9.56;84.50;100735.56;3606619;39;20043;-64
2023/01/12 01:01:32;;;;;;;10.95;2.58;;;;;;;9.69;85.26;100737.41;3606103;39;20059;-64
2023/01/12 01:03:58;;;;;;;19.27;6.72;;;;;;;9.69;85.37;100728.50;3606850;39;20063;-64
2023/01/12 01:06:24;;;;;;;12.82;3.08;;;;;;;9.66;85.11;100724.19;3605015;39;20054;-65
2023/01/12 01:08:50;;;;;;;9.13;2.58;;;;;;;9.58;85.24;100712.16;3602570;39;20396;-66
2023/01/12 01:11:16;;;;;;;8.75;2.55;;;;;;;9.68;84.50;100721.41;3607830;39;20061;-65
2023/01/12 01:13:42;;;;;;;12.25;2.47;;;;;;;9.67;85.39;100709.81;3607943;39;20065;-64
2023/01/12 01:16:12;;;;;;;14.85;3.25;;;;;;;9.72;85.54;100709.53;3605514;39;20061;-63
2023/01/12 01:18:39;;;;;;;10.75;3.30;;;;;;;9.71;85.74;100714.03;3606393;39;20059;-66
2023/01/12 01:21:08;;;;;;;14.82;3.15;;;;;;;9.71;85.27;100715.88;3607066;39;20058;-65
2023/01/12 01:23:37;;;;;;;14.50;3.13;;;;;;;9.72;85.48;100698.78;3605216;39;20057;-66
2023/01/12 01:26:07;;;;;;;11.57;2.92;;;;;;;9.65;85.24;100701.00;3607160;39;20372;-66
2023/01/12 01:28:35;;;;;;;17.08;3.88;;;;;;;9.50;85.47;100661.66;3608543;39;20084;-67
2023/01/12 01:31:14;;;;;;;15.95;3.05;;;;;;;9.68;85.33;100702.63;3605294;39;20087;-67
2023/01/12 01:33:40;;;;;;;11.43;3.35;;;;;;;9.51;85.79;100684.84;3606084;39;20055;-67
2023/01/12 01:36:07;;;;;;;17.05;3.30;;;;;;;9.62;86.11;100709.22;3607949;39;20065;-66
2023/01/12 01:38:33;;;;;;;15.07;3.53;;;;;;;9.60;86.55;100704.91;3608985;39;20058;-66
2023/01/12 01:40:59;;;;;;;17.65;3.45;;;;;;;9.61;86.74;100698.56;3605895;39;20507;-66
2023/01/12 01:43:28;;;;;;;11.88;2.85;;;;;;;9.62;86.09;100694.94;3609584;39;20059;-66
2023/01/12 01:46:12;;;;;;;17.23;3.30;;;;;;;9.56;87.16;100688.13;3607665;39;20066;-67
2023/01/12 01:48:39;;;;;;;16.00;3.25;;;;;;;9.59;86.69;100687.94;3603486;39;20067;-66
2023/01/12 01:51:14;;;;;;;13.98;3.08;;;;;;;9.57;86.35;100675.56;3606895;39;20128;-67
2023/01/12 01:53:46;;;;;;;19.25;4.03;;;;;;;9.49;86.46;100652.75;3608056;39;20106;-67
2023/01/12 01:56:21;;;;;;;14.55;2.97;;;;;;;9.30;86.13;100618.09;3607580;39;20343;-66
2023/01/12 01:58:57;;;;;;;14.60;3.22;;;;;;;9.49;86.25;100642.00;3604105;39;20426;-66
2023/01/12 02:01:24;;;;;;;14.82;3.55;;;;;;;9.53;86.03;100651.59;3607961;39;20063;-66
2023/01/12 02:03:54;;;;;;;16.65;3.10;;;;;;;9.51;86.54;100641.91;3605632;39;20086;-67
2023/01/12 02:06:24;;;;;;;17.95;3.10;;;;;;;9.51;86.98;100648.16;3608824;39;20066;-65
2023/01/12 02:08:59;;;;;;;17.27;3.75;;;;;;;9.56;86.29;100642.50;3608432;39;20066;-64
2023/01/12 02:17:27;;;;;;;14.43;2.95;;;;;;;9.56;86.57;100641.63;3606030;39;20116;-66
2023/01/12 02:20:01;;;;;;;17.52;2.65;;;;;;;9.56;85.76;100644.31;3605990;39;20124;-67
2023/01/12 02:23:10;;;;;;;17.85;3.25;;;;;;;9.54;85.78;100631.84;3607154;39;20066;-66
2023/01/12 02:26:11;;;;;;;18.08;3.30;;;;;;;9.54;86.67;100633.66;3607337;39;20107;-66
2023/01/12 02:29:25;;;;;;;21.98;4.60;;;;;;;9.56;86.21;100633.59;3606406;39;20048;-66
2023/01/12 02:32:19;;;;;;;13.48;2.88;;;;;;;9.57;86.72;100629.94;3607442;39;20085;-66
2023/01/12 02:35:13;;;;;;;15.88;3.15;;;;;;;9.59;86.83;100617.31;3603885;39;20051;-65
2023/01/12 02:38:08;;;;;;;12.20;3.25;;;;;;;9.60;86.02;100640.50;3597953;39;20111;-66
2023/01/12 02:41:06;;;;;;;15.55;3.85;;;;;;;9.63;86.97;100613.47;3607978;39;20059;-65
2023/01/12 02:43:37;;;;;;;17.83;3.40;;;;;;;9.64;85.86;100608.03;3606791;39;20067;-64
2023/01/12 02:46:16;;;;;;;16.65;3.03;;;;;;;9.66;85.76;100607.91;3608089;39;20059;-66
2023/01/12 02:49:02;;;;;;;13.20;3.20;;;;;;;9.64;86.08;100597.28;3604893;39;20055;-66
2023/01/12 02:51:42;;;;;;;10.95;2.83;;;;;;;9.64;86.45;100597.28;3607508;39;20046;-65
2023/01/12 02:54:19;;;;;;;21.45;2.88;;;;;;;9.67;85.83;100596.22;3606673;39;20416;-65
2023/01/12 02:56:52;;;;;;;11.40;2.72;;;;;;;9.68;86.17;100596.13;3607572;39;20063;-64
2023/01/12 02:59:28;;;;;;;17.95;3.63;;;;;;;9.64;86.41;100578.50;3608267;39;20366;-63
2023/01/12 03:02:05;;;;;;;12.25;2.95;;;;;;;9.67;86.87;100583.69;3606365;39;20526;-62
2023/01/12 03:04:31;;;;;;;14.27;2.92;;;;;;;9.66;86.08;100570.34;3605018;39;20095;-64
2023/01/12 03:06:57;;;;;;;15.77;3.33;;;;;;;9.70;86.17;100553.94;3604143;39;20193;-64
2023/01/12 03:09:42;;;;;;;15.77;3.13;;;;;;;9.73;85.75;100558.25;3609050;39;20053;-64
2023/01/12 03:12:22;;;;;;;14.63;3.35;;;;;;;9.63;85.95;100528.44;3604618;39;20055;-64
2023/01/12 03:14:52;;;;;;;14.02;2.97;;;;;;;9.58;86.20;100501.06;3603828;39;20069;-64
2023/01/12 03:17:31;;;;;;;17.20;3.15;;;;;;;9.72;85.59;100532.38;3604417;39;20424;-66
2023/01/12 03:20:11;;;;;;;12.80;2.55;;;;;;;9.69;85.78;100532.56;3606662;39;20084;-65
2023/01/12 03:22:37;;;;;;;11.82;2.47;;;;;;;9.64;85.56;100515.88;3607921;39;20452;-65
2023/01/12 03:25:12;;;;;;;12.95;2.60;;;;;;;9.63;86.08;100517.72;3606785;39;20087;-65
2023/01/12 03:27:47;;;;;;;16.58;3.75;;;;;;;9.68;86.28;100509.38;3606327;39;20050;-66
2023/01/12 03:30:27;;;;;;;15.68;3.05;;;;;;;9.34;86.63;100455.16;3598707;39;20061;-65
2023/01/12 03:32:53;;;;;;;9.02;2.20;;;;;;;9.47;86.92;100461.47;3604662;39;20614;-67
2023/01/12 03:35:26;;;;;;;12.45;2.75;;;;;;;9.68;86.75;100495.97;3610347;39;20059;-65
2023/01/12 03:38:15;;;;;;;14.07;2.83;;;;;;;9.70;86.38;100504.75;3608243;39;20386;-65
2023/01/12 03:40:54;;;;;;;14.80;2.10;;;;;;;9.69;86.35;100485.13;3598412;39;20042;-65
2023/01/12 03:43:33;;;;;;;9.35;2.42;;;;;;;9.63;86.35;100473.91;3605327;39;20059;-66
2023/01/12 03:46:11;;;;;;;13.70;3.25;;;;;;;9.67;86.34;100487.06;3606972;39;20067;-66
2023/01/12 03:49:12;;;;;;;15.20;2.90;;;;;;;9.68;86.87;100493.28;3602791;39;20059;-66
2023/01/12 03:51:46;;;;;;;14.82;2.80;;;;;;;9.66;86.56;100450.44;3603759;39;20119;-65
2023/01/12 03:54:15;;;;;;;8.80;2.70;;;;;;;9.50;86.69;100421.03;3601452;39;20059;-65
2023/01/12 03:56:45;;;;;;;8.38;2.70;;;;;;;9.65;86.68;100419.19;3605263;39;20384;-65
2023/01/12 03:59:13;;;;;;;14.98;3.15;;;;;;;9.66;86.76;100420.91;3604294;39;20450;-65
2023/01/12 04:01:40;;;;;;;13.88;2.90;;;;;;;9.65;86.33;100408.47;3607146;39;20070;-65
2023/01/12 04:04:06;;;;;;;7.90;2.60;;;;;;;9.66;86.34;100398.56;3603425;39;20043;-65
2023/01/12 04:06:32;;;;;;;11.05;2.63;;;;;;;9.64;87.08;100417.47;3605082;39;20452;-66
2023/01/12 04:08:57;;;;;;;11.02;2.33;;;;;;;9.65;86.57;100403.09;3606574;39;20047;-66
2023/01/12 04:14:07;;;;;;;10.65;2.28;;;;;;;9.62;87.16;100403.28;3604911;39;21333;-65
2023/01/12 04:16:32;;;;;;;9.57;2.63;;;;;;;9.67;87.44;100378.81;3606851;39;20195;-65
2023/01/12 04:18:58;;;;;;;14.18;2.88;;;;;;;9.66;86.58;100372.59;3604519;39;20669;-65
2023/01/12 04:24:08;;;;;;;8.55;2.30;;;;;;;9.42;87.21;100347.34;3606740;39;20062;-66
2023/01/12 04:26:33;;;;;;;10.38;2.25;;;;;;;9.62;87.84;100371.09;3605763;39;20051;-64
2023/01/12 04:28:59;;;;;;;6.47;2.00;;;;;;;9.62;87.21;100380.97;3604882;39;20404;-66
2023/01/12 04:31:25;;;;;;;9.40;2.33;;;;;;;9.51;87.29;100344.97;3604355;39;20413;-63
2023/01/12 04:33:50;;;;;;;13.93;2.70;;;;;;;9.60;87.63;100339.94;3603873;39;20061;-62
2023/01/12 04:36:16;;;;;;;12.88;2.28;;;;;;;9.57;88.48;100332.09;3603660;39;20066;-63
2023/01/12 04:38:41;;;;;;;10.93;2.58;;;;;;;9.58;88.65;100325.75;3602195;39;20071;-63
2023/01/12 04:41:08;;;;;;;13.85;2.78;;;;;;;9.59;87.91;100332.84;3604178;39;20046;-62
2023/01/12 04:43:34;;;;;;;12.20;2.65;;;;;;;9.58;88.35;100331.13;3607840;39;20377;-62
2023/01/12 04:46:09;;;;;;;9.35;2.50;;;;;;;9.55;88.44;100326.84;3604552;39;20044;-63
2023/01/12 04:48:39;;;;;;;13.20;2.90;;;;;;;9.53;88.79;100308.13;3607144;39;20073;-63
2023/01/12 04:51:05;;;;;;;10.15;2.33;;;;;;;9.52;88.55;100298.38;3606067;39;20048;-64
2023/01/12 04:53:31;;;;;;;10.80;2.40;;;;;;;9.53;88.24;100297.41;3604392;39;20042;-62
2023/01/12 04:55:57;;;;;;;11.75;2.97;;;;;;;9.50;88.73;100280.66;3604600;39;20393;-63
2023/01/12 04:58:23;;;;;;;12.00;2.80;;;;;;;9.46;88.90;100280.00;3605087;39;20062;-61
2023/01/12 05:00:49;;;;;;;14.73;2.80;;;;;;;9.49;88.39;100270.91;3602427;39;21695;-62
2023/01/12 05:03:16;;;;;;;12.82;2.70;;;;;;;9.47;88.66;100294.28;3602689;39;20593;-62
2023/01/12 05:05:41;;;;;;;11.43;2.58;;;;;;;9.46;88.38;100288.06;3607472;39;20055;-63
2023/01/12 05:10:57;;;;;;;14.23;2.55;;;;;;;9.50;89.33;100297.59;3604537;39;20136;-63
2023/01/12 05:13:27;;;;;;;11.43;2.90;;;;;;;9.50;88.64;100292.25;3607398;39;20397;-62
2023/01/12 05:15:53;;;;;;;9.15;2.25;;;;;;;9.50;88.86;100260.03;3606721;39;20089;-63
2023/01/12 05:18:19;;;;;;;10.38;2.10;;;;;;;9.52;88.67;100266.19;3604006;39;20425;-63
2023/01/12 05:20:45;;;;;;;9.93;2.38;;;;;;;9.41;89.01;100249.91;3604498;39;20068;-64
2023/01/12 05:23:10;;;;;;;7.60;2.22;;;;;;;9.39;88.79;100249.19;3605777;39;20061;-63
2023/01/12 05:25:36;;;;;;;11.75;2.40;;;;;;;9.56;88.44;100279.41;3607333;39;20309;-62
2023/01/12 05:28:01;;;;;;;13.50;2.67;;;;;;;9.58;87.97;100283.69;3605591;39;20055;-63
2023/01/12 05:30:28;;;;;;;15.43;2.70;;;;;;;9.38;88.26;100243.91;3606466;39;20090;-64
2023/01/12 05:32:54;;;;;;;12.32;2.60;;;;;;;9.54;88.87;100272.28;3605097;39;20309;-63
2023/01/12 05:35:20;;;;;;;11.02;1.98;;;;;;;9.52;89.05;100254.59;3608360;39;20467;-63
2023/01/12 05:37:46;;;;;;;11.80;2.28;;;;;;;9.51;88.48;100261.78;3606319;39;20075;-63
2023/01/12 05:40:12;;;;;;;13.70;2.40;;;;;;;9.59;88.88;100274.69;3604580;39;20058;-63
2023/01/12 05:45:22;;;;;;;8.70;2.15;;;;;;;9.57;89.16;100255.13;3609491;39;20112;-62
2023/01/12 05:47:58;;;;;;;9.63;2.38;;;;;;;9.60;89.33;100264.81;3606349;39;20050;-63
2023/01/12 05:50:24;;;;;;;9.18;1.92;;;;;;;9.60;88.69;100251.38;3604401;39;20059;-64
2023/01/12 05:52:53;;;;;;;10.35;2.20;;;;;;;9.60;89.49;100259.44;3609669;39;20051;-63
2023/01/12 05:55:19;;;;;;;7.03;2.13;;;;;;;9.59;89.50;100268.47;3608985;39;20043;-63
2023/01/12 05:57:44;;;;;;;11.30;1.90;;;;;;;9.60;89.17;100254.06;3608504;39;20047;-63
2023/01/12 06:00:11;;;;;;;12.75;1.98;;;;;;;9.63;89.56;100269.97;3608927;39;20313;-63
2023/01/12 06:02:36;;;;;;;10.25;1.77;;;;;;;9.64;89.15;100251.09;3606533;39;20391;-62
2023/01/12 06:05:04;;;;;;;10.32;2.00;;;;;;;9.65;89.11;100254.63;3607152;39;20047;-64
2023/01/12 06:07:29;;;;;;;6.45;1.73;;;;;;;9.67;89.17;100260.72;3610031;39;20055;-61
2023/01/12 06:09:55;;;;;;;7.13;1.73;;;;;;;9.62;89.78;100233.38;3609714;39;20105;-63
2023/01/12 06:15:05;;;;;;;7.13;1.83;;;;;;;9.68;89.87;100267.84;3605236;39;20143;-61
2023/01/12 06:17:31;;;;;;;5.85;1.52;;;;;;;9.73;89.37;100249.59;3602761;39;20066;-64
2023/01/12 06:19:56;;;;;;;10.02;2.10;;;;;;;9.73;89.87;100258.50;3604761;39;21877;-63
2023/01/12 06:22:22;;;;;;;7.80;2.47;;;;;;;9.78;89.81;100260.88;3604140;39;20057;-64
2023/01/12 06:24:48;;;;;;;4.60;1.30;;;;;;;9.80;89.12;100250.91;3605654;39;20055;-63
2023/01/12 06:27:15;;;;;;;8.35;1.55;;;;;;;9.79;89.14;100243.81;3610711;39;20046;-64
2023/01/12 06:29:41;;;;;;;7.80;1.60;;;;;;;9.80;89.23;100242.88;3608449;39;20387;-63
2023/01/12 06:32:07;;;;;;;10.02;1.40;;;;;;;9.81;89.83;100260.69;3605658;39;20065;-61
2023/01/12 06:34:34;;;;;;;5.30;1.70;;;;;;;9.84;89.19;100263.16;3606490;39;20115;-64
2023/01/12 06:37:01;;;;;;;4.85;1.35;;;;;;;9.87;89.15;100276.38;3606220;39;20040;-63
2023/01/12 06:39:28;;;;;;;8.57;1.58;;;;;;;9.87;89.88;100262.94;3603725;39;21162;-62
2023/01/12 06:44:49;;;;;;;4.75;1.63;;;;;;;9.93;89.30;100272.41;3595027;39;20326;-64
2023/01/12 06:47:14;;;;;;;5.53;1.50;;;;;;;9.93;89.45;100261.69;3607901;39;20059;-64
2023/01/12 06:49:40;;;;;;;6.90;1.35;;;;;;;9.88;89.80;100253.91;3605855;39;20121;-63
2023/01/12 06:52:06;;;;;;;5.38;1.65;;;;;;;9.94;89.86;100252.66;3605453;39;20062;-63
2023/01/12 06:54:31;;;;;;;5.40;1.35;;;;;;;9.90;89.64;100262.75;3606046;39;20065;-62
2023/01/12 06:56:57;;;;;;;4.13;1.52;;;;;;;9.92;89.48;100270.69;3604742;39;20051;-62
2023/01/12 06:59:22;;;;;;;3.83;1.30;;;;;;;9.85;89.39;100248.75;3604287;39;20078;-63
2023/01/12 07:01:48;;;;;;;2.55;0.88;;;;;;;9.95;89.05;100259.72;3606881;39;20051;-64
2023/01/12 07:04:13;;;;;;;3.92;1.00;;;;;;;9.93;89.77;100250.94;3608051;39;20370;-63
2023/01/12 07:06:39;;;;;;;3.88;1.08;;;;;;;9.93;89.02;100241.06;3597086;39;20120;-63
2023/01/12 07:09:05;;;;;;;3.58;1.30;;;;;;;9.95;88.99;100257.91;3604796;39;20066;-64
2023/01/12 07:11:31;;;;;;;4.40;1.02;;;;;;;9.96;88.91;100245.38;3605359;39;20692;-61
2023/01/12 07:13:57;;;;;;;5.32;1.23;;;;;;;9.97;89.30;100247.06;3603944;39;20123;-63
2023/01/12 07:16:23;;;;;;;5.68;1.05;;;;;;;9.99;89.05;100269.31;3605470;39;20051;-63
2023/01/12 07:18:48;;;;;;;4.80;0.93;;;;;;;9.99;88.96;100266.63;3602964;39;20047;-62
2023/01/12 07:21:15;;;;;;;6.03;1.48;;;;;;;10.00;88.93;100266.50;3604642;39;20055;-63
2023/01/12 07:23:42;;;;;;;3.58;1.20;;;;;;;10.04;89.72;100264.47;3605813;39;20143;-62
2023/01/12 07:26:09;;;;;;;2.15;1.00;;;;;;;10.03;89.48;100275.34;3603811;39;20051;-61
2023/01/12 07:28:36;;;;;;;3.95;1.20;;;;;;;10.04;89.29;100263.63;3607810;39;20063;-62
2023/01/12 07:31:04;;;;;;;3.13;1.05;;;;;;;10.03;89.50;100267.28;3606292;39;20085;-62
2023/01/12 07:33:33;;;;;;;6.28;1.23;;;;;;;10.06;89.78;100267.06;3599601;39;20058;-62
2023/01/12 07:36:01;;;;;;;3.83;1.13;;;;;;;10.03;89.48;100265.44;3605623;39;20092;-61
2023/01/12 07:38:29;;;;;;;4.40;1.20;;;;;;;10.09;89.57;100273.09;3610091;39;20454;-62
2023/01/12 07:41:04;;;;;;;3.83;1.13;;;;;;;10.06;89.79;100277.81;3605108;39;20131;-63
2023/01/12 07:43:32;;;;;;;4.15;1.27;;;;;;;10.09;89.46;100285.66;3605825;39;20096;-63
2023/01/12 07:45:58;;;;;;;4.18;1.10;;;;;;;10.09;89.17;100299.09;3605788;39;20055;-62
2023/01/12 07:48:26;;;;;;;4.55;1.15;;;;;;;9.99;89.11;100254.06;3607017;39;20140;-62
2023/01/12 07:50:52;;;;;;;5.28;1.20;;;;;;;10.04;89.08;100269.00;3605470;39;20063;-62
2023/01/12 07:53:19;;;;;;;3.45;1.30;;;;;;;10.18;89.35;100280.50;3599060;39;20301;-62
2023/01/12 07:55:44;;;;;;;4.53;1.20;;;;;;;10.17;88.89;100292.19;3596936;39;20119;-63
2023/01/12 07:58:11;;;;;;;4.55;0.90;;;;;;;10.25;88.73;100289.00;3605878;39;21319;-61
2023/01/12 08:00:37;;;;;;;3.13;1.08;;;;;;;10.24;88.82;100298.00;3606842;39;20061;-62
2023/01/12 08:03:09;;;;;;;5.55;1.20;;;;;;;10.18;88.93;100287.69;3607576;39;20062;-63
2023/01/12 08:05:36;;;;;;;6.35;1.27;;;;;;;10.23;88.65;100307.03;3605161;39;20062;-63
2023/01/12 08:08:04;;;;;;;3.92;1.20;;;;;;;10.24;89.35;100306.06;3604001;39;20054;-62
2023/01/12 08:10:30;;;;;;;6.22;1.20;;;;;;;10.29;89.42;100308.47;3608767;39;20111;-63
2023/01/12 08:12:55;;;;;;;1.90;0.95;;;;;;;10.26;89.11;100312.25;3607545;39;20058;-62
2023/01/12 08:15:25;;;;;;;2.40;1.20;;;;;;;10.29;89.13;100314.72;3606998;39;20057;-61
2023/01/12 08:18:02;;;;;;;3.13;1.80;;;;;;;10.30;89.56;100313.75;3599707;39;20069;-61
2023/01/12 08:20:34;;;;;;;2.42;0.90;;;;;;;10.30;89.91;100332.53;3608796;39;20070;-62
2023/01/12 08:23:20;;;;;;;4.47;1.27;;;;;;;10.31;89.83;100328.91;3607491;39;20155;-64
2023/01/12 08:25:55;;;;;;;3.60;1.25;;;;;;;10.35;89.71;100316.13;3607927;39;20325;-64
2023/01/12 08:28:36;;;;;;;2.47;1.33;;;;;;;10.25;89.56;100323.94;3608912;39;20045;-65
2023/01/12 08:31:02;;;;;;;3.47;1.00;;;;;;;10.36;90.17;100336.63;3604290;39;20051;-66
2023/01/12 08:33:28;;;;;;;1.52;0.70;;;;;;;10.38;89.94;100326.66;3601297;39;20050;-66
2023/01/12 08:35:54;;;;;;;3.65;1.05;;;;;;;10.39;90.13;100345.34;3607226;39;20071;-65
2023/01/12 08:38:20;;;;;;;2.13;0.98;;;;;;;10.39;90.06;100347.19;3606826;39;20055;-67
2023/01/12 08:46:14;;;;;;;1.33;1.05;;;;;;;10.43;90.60;100348.69;3611180;39;20057;-64
2023/01/12 08:48:39;;;;;;;3.20;1.20;;;;;;;10.41;90.78;100354.19;3610379;39;20055;-63
2023/01/12 08:51:07;;;;;;;3.78;1.40;;;;;;;10.44;90.54;100356.66;3610144;39;20054;-66
2023/01/12 08:53:33;;;;;;;2.63;1.25;;;;;;;10.25;90.45;100329.31;3610229;39;20410;-66
2023/01/12 08:55:59;;;;;;;4.55;1.20;;;;;;;10.47;90.57;100357.41;3608921;39;20302;-67
2023/01/12 08:58:24;;;;;;;2.30;1.20;;;;;;;10.47;90.70;100360.97;3610102;39;20062;-66
2023/01/12 09:00:50;;;;;;;3.20;1.40;;;;;;;10.49;90.84;100356.31;3605408;39;20070;-66
2023/01/12 09:03:16;;;;;;;2.95;1.20;;;;;;;10.54;90.89;100366.78;3608385;39;20259;-67
2023/01/12 09:05:43;;;;;;;1.98;1.08;;;;;;;10.58;90.74;100365.59;3607765;39;20142;-65
2023/01/12 09:08:08;;;;;;;3.63;1.10;;;;;;;10.59;90.32;100361.91;3609081;39;20120;-67
2023/01/12 09:10:35;;;;;;;2.78;1.00;;;;;;;10.38;89.95;100335.56;3609787;39;20067;-67
2023/01/12 09:13:00;;;;;;;2.67;1.00;;;;;;;10.59;90.86;100370.88;3607582;39;20047;-64
2023/01/12 09:15:26;;;;;;;2.10;1.05;;;;;;;10.64;90.08;100359.78;3605659;39;20054;-67
2023/01/12 09:17:53;;;;;;;1.92;0.77;;;;;;;10.66;90.25;100374.00;3604990;39;20113;-66
2023/01/12 09:20:20;;;;;;;3.63;1.00;;;;;;;10.56;90.14;100346.88;3606332;39;20078;-66
2023/01/12 09:22:46;;;;;;;4.38;1.23;;;;;;;10.68;90.67;100372.03;3605598;39;20059;-66
2023/01/12 09:25:12;;;;;;;3.63;1.10;;;;;;;10.72;90.43;100372.69;3605083;39;20048;-66
2023/01/12 09:27:38;;;;;;;5.97;1.10;;;;;;;10.74;90.72;100374.28;3605098;39;20754;-66
2023/01/12 09:30:05;;;;;;;2.03;0.90;;;;;;;10.74;90.58;100370.75;3603095;39;20151;-66
2023/01/12 09:32:31;;;;;;;2.58;1.00;;;;;;;10.74;90.61;100376.97;3604193;39;20069;-67
2023/01/12 09:34:58;;;;;;;1.20;0.70;;;;;;;10.40;89.56;100322.91;3605089;39;20062;-67
2023/01/12 09:37:25;;;;;;;2.53;0.73;;;;;;;10.78;90.33;100388.38;3605349;39;20059;-67
2023/01/12 09:39:50;;;;;;;0.95;0.70;;;;;;;10.80;90.58;100391.84;3605035;39;20063;-64
2023/01/12 09:48:10;;;;;;;2.10;0.90;;;;;;;10.78;90.16;100399.13;3603734;39;20412;-64
2023/01/12 09:50:58;;;;;;;2.17;0.70;;;;;;;10.59;90.13;100370.88;3607110;39;20065;-63
2023/01/12 09:53:35;;;;;;;2.20;0.63;;;;;;;10.80;90.25;100398.06;3607229;39;20054;-65
2023/01/12 09:56:32;;;;;;;2.58;0.70;;;;;;;10.78;90.25;100409.88;3605447;39;20055;-63
2023/01/12 09:59:13;;;;;;;1.17;0.70;;;;;;;10.81;90.61;100409.69;3606188;39;20036;-64
2023/01/12 10:01:39;;;;;;;1.45;0.60;;;;;;;10.80;90.60;100413.34;3606747;39;20316;-64
2023/01/12 10:04:06;;;;;;;1.17;0.80;;;;;;;10.81;90.40;100423.13;3611183;39;20294;-63
2023/01/12 10:06:34;;;;;;;1.05;0.80;;;;;;;10.84;90.39;100420.22;3602734;39;20047;-61
2023/01/12 10:09:05;;;;;;;0.93;0.80;;;;;;;10.82;90.08;100412.28;3609051;39;20078;-63
2023/01/12 10:12:13;;;;;;;1.52;0.70;;;;;;;10.82;90.54;100414.09;3610816;39;20135;-61
2023/01/12 10:15:19;;;;;;;2.30;0.63;;;;;;;10.81;90.89;100402.47;3610140;39;20145;-63
2023/01/12 10:18:00;;;;;;;2.67;0.90;;;;;;;10.86;90.72;100421.84;3604944;39;20091;-63
2023/01/12 10:20:41;;;;;;;2.05;0.60;;;;;;;10.83;90.82;100423.88;3605580;39;20055;-63
2023/01/12 10:23:06;;;;;;;0.50;0.50;;;;;;;10.85;91.18;100425.50;3609881;39;20043;-64
2023/01/12 10:25:42;;;;;;;2.67;1.00;;;;;;;10.86;90.24;100411.09;3610896;39;20062;-63
2023/01/12 10:28:15;;;;;;;1.35;0.60;;;;;;;10.86;90.53;100419.16;3606146;39;20070;-63
2023/01/12 10:30:42;;;;;;;;;;;;;;;10.86;90.51;100408.41;3604182;39;20055;-62
2023/01/12 10:33:19;;;;;;;1.05;0.80;;;;;;;10.88;90.53;100406.47;3603448;39;19928;-63
2023/01/12 10:35:54;;;;;;;1.35;0.65;;;;;;;10.85;90.69;100411.22;3604383;39;20043;-62
2023/01/12 10:38:37;;;;;;;2.22;0.70;;;;;;;10.90;90.76;100414.41;3603543;39;20194;-62
2023/01/12 10:41:21;;;;;;;2.17;0.68;;;;;;;10.89;91.19;100418.09;3605764;39;20050;-64
2023/01/12 10:43:58;;;;;;;1.45;0.52;;;;;;;10.93;91.00;100414.19;3609846;39;20053;-64
2023/01/12 10:46:30;;;;;;;0.68;0.60;;;;;;;10.87;91.33;100399.34;3605547;39;20058;-64
2023/01/12 10:49:20;;;;;;;1.45;0.77;;;;;;;10.96;90.98;100402.38;3603601;39;20059;-64
2023/01/12 10:52:19;;;;;;;1.20;0.38;;;;;;;10.96;90.90;100407.75;3603801;39;20054;-63
2023/01/12 10:54:48;;;;;;;1.15;0.70;;;;;;;10.97;90.78;100409.47;3606703;39;20050;-63
2023/01/12 10:57:23;;;;;;;2.53;0.70;;;;;;;10.95;90.98;100414.13;3605010;39;20106;-63
2023/01/12 11:00:01;;;;;;;0.70;0.40;;;;;;;10.99;90.73;100410.22;3601561;39;20055;-63
2023/01/12 11:02:42;;;;;;;0.95;0.65;;;;;;;10.94;91.07;100402.47;3603856;39;20390;-63
2023/01/12 11:05:30;;;;;;;0.57;0.50;;;;;;;10.99;90.90;100418.31;3605490;39;20070;-64
2023/01/12 11:07:56;;;;;;;1.52;0.60;;;;;;;11.01;90.61;100416.38;3603259;39;20059;-62
2023/01/12 11:10:35;;;;;;;1.20;0.40;;;;;;;10.85;90.89;100398.63;3604513;39;20409;-62
2023/01/12 11:13:04;;;;;;;1.27;0.60;;;;;;;11.03;90.84;100427.88;3602007;39;20050;-62
2023/01/12 11:15:37;;;;;;;2.05;0.55;;;;;;;11.03;91.17;100406.34;3598620;39;20400;-63
2023/01/12 11:18:12;;;;;;;0.35;0.30;;;;;;;11.03;90.79;100414.41;3606204;39;20638;-63
2023/01/12 11:20:51;;;;;;;1.17;0.63;;;;;;;11.06;90.81;100406.13;3607158;39;20081;-63
2023/01/12 11:23:30;;;;;;;2.13;0.82;;;;;;;11.01;91.25;100398.41;3606710;39;20062;-62
2023/01/12 11:26:01;;;;;;;1.45;0.57;;;;;;;11.07;90.90;100410.56;3602645;39;20071;-62
2023/01/12 11:28:48;;;;;;;1.30;0.63;;;;;;;11.09;90.80;100409.47;3603007;39;20086;-62
2023/01/12 11:31:45;;;;;;;0.93;0.60;;;;;;;11.10;91.04;100410.31;3602070;39;20051;-62
2023/01/12 11:34:20;;;;;;;0.85;0.43;;;;;;;11.09;90.83;100406.78;3606273;39;20156;-64
2023/01/12 11:36:59;;;;;;;1.58;0.50;;;;;;;11.11;91.25;100401.31;3598364;39;20065;-63
2023/01/12 11:39:30;;;;;;;1.23;0.60;;;;;;;11.10;91.18;100407.63;3597512;39;20047;-64
2023/01/12 11:45:07;;;;;;;0.80;0.45;;;;;;;11.10;91.54;100391.50;3606517;39;20116;-63
2023/01/12 11:47:47;;;;;;;1.65;0.80;;;;;;;11.08;91.15;100385.38;3604967;39;20113;-63
2023/01/12 11:50:24;;;;;;;1.25;0.88;;;;;;;11.10;91.30;100399.56;3605480;39;20370;-63
2023/01/12 11:52:51;;;;;;;1.15;0.50;;;;;;;11.09;91.72;100393.31;3607829;39;20388;-63
2023/01/12 11:56:02;;;;;;;3.13;1.08;;;;;;;11.12;91.55;100387.72;3605417;39;20091;-63
2023/01/12 11:58:42;;;;;;;0.70;0.60;;;;;;;11.10;91.30;100389.69;3602330;39;20385;-62
2023/01/12 12:01:15;;;;;;;1.23;0.77;;;;;;;11.13;90.96;100393.97;3605837;39;20095;-64
2023/01/12 12:04:27;;;;;;;2.83;0.77;;;;;;;11.14;90.86;100383.09;3606907;39;20505;-65
2023/01/12 12:07:47;;;;;;;3.08;1.00;;;;;;;11.19;91.06;100379.22;3596984;39;20104;-66
2023/01/12 12:10:30;;;;;;;0.75;0.50;;;;;;;11.18;91.05;100374.81;3603566;39;20104;-66
2023/01/12 12:13:23;;;;;;;;;;;;;;;11.20;91.22;100379.13;3604555;39;20415;-65
2023/01/12 12:16:01;;;;;;;1.00;0.73;;;;;;;11.22;90.63;100384.38;3601566;39;19939;-65
2023/01/12 12:18:53;;;;;;;0.73;0.70;;;;;;;11.20;90.66;100376.44;3606948;39;20394;-65
2023/01/12 12:21:50;;;;;;;0.63;0.60;;;;;;;11.20;90.27;100365.69;3604312;39;20067;-66
2023/01/12 12:24:49;;;;;;;1.73;0.70;;;;;;;11.18;90.39;100370.28;3606750;39;20120;-66
2023/01/12 12:28:01;;;;;;;0.88;0.80;;;;;;;11.12;90.11;100365.34;3604932;39;20353;-65
2023/01/12 12:30:38;;;;;;;1.67;0.80;;;;;;;11.17;90.38;100368.59;3590460;39;20468;-66
2023/01/12 12:33:20;;;;;;;1.30;0.90;;;;;;;11.19;89.85;100365.78;3602556;39;20349;-66
2023/01/12 12:36:15;;;;;;;0.90;0.70;;;;;;;11.15;90.22;100359.75;3606820;39;20367;-65